Time;durP1;ratioP1;P1;durP2;ratioP2;P2;SDS_P1;SDS_P2;PMS_P1;PMS_P2;Temp;Humidity;BMP_temperature;BMP_pressure;BME280_temperature;BME280_humidity;BME280_pressure;Samples;Min_cycle;Max_cycle;Signal;HPM_P1;HPM_P2
2022/09/04 00:02:01;;;;;;;1.10;0.40;;;;;;;27.71;37.45;101215.03;5012093;28;20042;-75
2022/09/04 00:04:42;;;;;;;1.23;0.50;;;;;;;27.68;37.81;101205.38;5009427;28;20124;-80
2022/09/04 00:07:22;;;;;;;2.75;0.77;;;;;;;27.75;38.93;101211.38;5011381;28;20049;-76
2022/09/04 00:10:08;;;;;;;0.50;0.45;;;;;;;27.83;37.98;101205.75;5047656;28;20592;-76
2022/09/04 00:12:45;;;;;;;0.82;0.60;;;;;;;27.87;38.55;101199.47;5042131;28;20072;-78
2022/09/04 00:15:19;;;;;;;2.47;0.70;;;;;;;27.82;37.66;101198.72;5046366;28;20120;-76
2022/09/04 00:17:55;;;;;;;0.80;0.50;;;;;;;27.84;38.10;101204.91;5047389;28;20052;-78
2022/09/04 00:20:39;;;;;;;3.33;0.68;;;;;;;27.81;37.55;101204.94;5048594;28;20039;-76
2022/09/04 00:23:15;;;;;;;1.15;0.60;;;;;;;27.61;37.81;101214.50;5048160;28;20055;-75
2022/09/04 00:25:56;;;;;;;1.00;0.60;;;;;;;27.48;38.05;101213.19;5049220;28;20053;-76
2022/09/04 00:28:35;;;;;;;0.88;0.60;;;;;;;27.52;39.46;101215.69;5050485;28;20053;-76
2022/09/04 00:31:13;;;;;;;0.40;0.40;;;;;;;27.57;39.24;101221.69;5052070;28;20165;-77
2022/09/04 00:33:52;;;;;;;0.93;0.60;;;;;;;27.61;39.20;101218.97;5051074;28;20919;-77
2022/09/04 00:36:23;;;;;;;1.35;1.23;;;;;;;27.66;39.11;101223.19;5048468;28;20087;-77
2022/09/04 00:38:57;;;;;;;7.38;6.65;;;;;;;27.64;38.63;101214.38;5047381;28;20486;-78
2022/09/04 00:41:31;;;;;;;2.33;0.73;;;;;;;27.55;38.16;101209.38;5051372;28;20053;-75
2022/09/04 00:44:39;;;;;;;3.13;2.80;;;;;;;27.51;39.34;101213.06;5047387;28;20322;-76
2022/09/04 00:47:33;;;;;;;1.75;0.75;;;;;;;27.45;39.17;101207.97;5049077;28;20060;-75
2022/09/04 00:50:24;;;;;;;0.80;0.52;;;;;;;27.40;39.30;101204.56;5047468;28;20491;-78
2022/09/04 00:53:42;;;;;;;1.95;0.55;;;;;;;27.39;38.30;101213.50;5045890;28;20048;-77
2022/09/04 00:56:41;;;;;;;0.95;0.70;;;;;;;27.21;38.28;101207.84;5023719;28;20045;-76
2022/09/04 00:59:23;;;;;;;4.63;0.80;;;;;;;27.11;38.72;101211.69;5050956;28;20053;-76
2022/09/04 01:01:57;;;;;;;2.08;0.50;;;;;;;27.05;41.18;101203.91;5047381;28;20045;-76
2022/09/04 01:04:38;;;;;;;0.70;0.47;;;;;;;26.93;40.63;101216.66;5048757;28;20057;-76
2022/09/04 01:07:36;;;;;;;1.15;0.60;;;;;;;26.91;40.08;101207.88;5042118;28;20538;-77
2022/09/04 01:10:36;;;;;;;0.80;0.50;;;;;;;26.91;39.36;101196.41;5047682;28;20049;-78
2022/09/04 01:13:14;;;;;;;1.70;0.50;;;;;;;26.94;39.31;101202.50;5039874;28;20691;-82
2022/09/04 01:15:46;;;;;;;1.05;0.65;;;;;;;26.88;39.50;101207.97;5047761;28;20040;-78
2022/09/04 01:18:19;;;;;;;3.67;0.70;;;;;;;26.83;39.92;101204.59;5047480;28;20056;-77
2022/09/04 01:21:07;;;;;;;0.60;0.50;;;;;;;26.76;39.83;101200.41;5046270;28;20059;-76
2022/09/04 01:23:59;;;;;;;1.17;0.47;;;;;;;26.71;41.14;101195.25;5050051;28;20045;-79
2022/09/04 01:26:38;;;;;;;4.00;0.60;;;;;;;26.66;39.91;101196.28;5053038;28;20044;-76
2022/09/04 01:29:18;;;;;;;0.88;0.40;;;;;;;26.62;40.12;101197.28;5048425;28;20083;-75
2022/09/04 01:31:53;;;;;;;1.65;0.60;;;;;;;26.55;41.74;101199.28;5050779;28;20742;-75
2022/09/04 01:34:36;;;;;;;1.08;0.50;;;;;;;26.41;40.85;101196.13;5048729;28;20041;-76
2022/09/04 01:37:16;;;;;;;5.47;0.90;;;;;;;26.26;40.42;101194.78;5048176;28;20049;-75
2022/09/04 01:39:51;;;;;;;1.23;0.50;;;;;;;26.20;42.60;101192.31;5045589;28;20099;-76
2022/09/04 01:42:28;;;;;;;1.90;0.98;;;;;;;26.15;41.18;101183.63;5046652;28;20045;-79
2022/09/04 01:44:56;;;;;;;1.70;0.50;;;;;;;26.11;42.67;101186.38;5049870;28;20048;-76
2022/09/04 01:47:31;;;;;;;0.40;0.40;;;;;;;26.06;43.41;101176.78;5049991;28;20747;-76
2022/09/04 01:50:04;;;;;;;3.05;0.70;;;;;;;26.04;42.68;101175.97;5045331;28;20061;-75
2022/09/04 01:52:42;;;;;;;1.60;1.42;;;;;;;26.01;43.15;101171.63;5049571;28;20211;-76
2022/09/04 01:55:24;;;;;;;4.05;1.70;;;;;;;25.97;43.39;101167.31;5045469;28;20057;-76
2022/09/04 01:58:01;;;;;;;;;;;;;;;25.94;43.76;101166.53;5045036;28;20056;-76
2022/09/04 02:00:33;;;;;;;1.88;0.55;;;;;;;25.87;43.16;101160.53;5044931;28;19920;-75
2022/09/04 02:03:10;;;;;;;0.57;0.45;;;;;;;25.76;42.31;101166.09;5046149;28;20103;-75
2022/09/04 02:05:53;;;;;;;1.55;0.57;;;;;;;25.69;42.51;101170.69;5046209;28;20044;-76
2022/09/04 02:08:51;;;;;;;1.38;0.63;;;;;;;25.68;43.28;101163.66;5043648;28;20503;-75
2022/09/04 02:11:25;;;;;;;0.73;0.50;;;;;;;25.63;43.24;101164.66;5044603;28;20052;-76
2022/09/04 02:14:10;;;;;;;1.45;0.85;;;;;;;25.58;44.61;101167.44;5043858;28;20080;-75
2022/09/04 02:16:56;;;;;;;1.05;0.70;;;;;;;25.48;44.32;101165.97;5046036;28;20044;-74
2022/09/04 02:19:37;;;;;;;2.00;0.60;;;;;;;25.38;43.58;101177.69;5044318;28;20053;-79
2022/09/04 02:22:16;;;;;;;0.93;0.60;;;;;;;25.28;45.04;101177.91;5046356;28;20103;-76
2022/09/04 02:24:53;;;;;;;0.47;0.30;;;;;;;25.15;44.24;101163.22;5045730;28;20041;-75
2022/09/04 02:27:27;;;;;;;0.63;0.50;;;;;;;25.07;45.18;101179.28;5047694;28;20494;-76
2022/09/04 02:30:04;;;;;;;1.38;0.50;;;;;;;24.98;45.87;101176.00;5046178;28;20045;-76
2022/09/04 02:32:39;;;;;;;1.55;0.50;;;;;;;24.81;46.10;101161.38;5049890;28;20049;-75
2022/09/04 02:35:17;;;;;;;7.43;0.60;;;;;;;24.82;46.19;101176.34;5050271;28;20049;-75
2022/09/04 02:37:59;;;;;;;2.58;0.60;;;;;;;24.73;46.08;101176.53;5045298;28;20538;-76
2022/09/04 02:40:33;;;;;;;0.98;0.57;;;;;;;24.67;46.32;101177.56;5048524;28;20068;-78
2022/09/04 02:43:20;;;;;;;0.65;0.50;;;;;;;24.58;45.86;101166.28;5048217;28;20052;-75
2022/09/04 02:46:01;;;;;;;1.17;0.40;;;;;;;24.49;46.49;101162.09;5046571;28;20049;-75
2022/09/04 02:48:41;;;;;;;1.95;0.77;;;;;;;24.40;47.26;101165.78;5046567;28;20104;-73
2022/09/04 02:51:24;;;;;;;1.35;0.70;;;;;;;24.31;47.64;101162.47;5042076;28;20068;-75
2022/09/04 02:54:02;;;;;;;1.20;0.60;;;;;;;24.22;47.59;101159.09;5047766;28;20060;-76
2022/09/04 02:56:42;;;;;;;1.20;0.50;;;;;;;24.14;47.23;101152.22;5046008;28;20127;-77
2022/09/04 02:59:35;;;;;;;1.80;0.60;;;;;;;24.07;47.80;101158.53;5045592;28;20045;-76
2022/09/04 03:02:09;;;;;;;1.00;0.80;;;;;;;23.98;48.31;101164.88;5047924;28;20137;-77
2022/09/04 03:04:48;;;;;;;1.20;0.70;;;;;;;23.90;48.69;101164.16;5048797;28;20045;-75
2022/09/04 03:07:28;;;;;;;0.60;0.52;;;;;;;23.80;48.87;101172.28;5047956;28;20059;-76
2022/09/04 03:10:03;;;;;;;1.58;0.47;;;;;;;23.71;49.07;101164.47;5048388;28;20052;-75
2022/09/04 03:12:39;;;;;;;2.78;0.70;;;;;;;23.62;49.22;101170.78;5042578;28;20037;-76
2022/09/04 03:15:16;;;;;;;1.30;0.52;;;;;;;23.53;49.85;101173.59;5043360;28;20045;-76
2022/09/04 03:17:54;;;;;;;2.67;0.77;;;;;;;23.46;49.76;101169.31;5045701;28;20049;-73
2022/09/04 03:20:25;;;;;;;1.27;0.80;;;;;;;23.38;50.38;101173.84;5046828;28;20618;-75
2022/09/04 03:23:01;;;;;;;3.45;0.90;;;;;;;23.29;50.91;101177.53;5047534;28;20048;-76
2022/09/04 03:25:57;;;;;;;2.78;0.90;;;;;;;23.20;51.06;101172.38;5046222;28;20471;-74
2022/09/04 03:28:40;;;;;;;3.60;1.08;;;;;;;23.13;51.24;101182.16;5047849;28;20059;-75
2022/09/04 03:31:24;;;;;;;1.88;0.60;;;;;;;23.05;50.92;101184.06;5045275;28;20056;-73
2022/09/04 03:34:05;;;;;;;1.23;0.63;;;;;;;22.99;51.35;101178.88;5050776;28;20077;-81
2022/09/04 03:36:42;;;;;;;2.20;0.70;;;;;;;22.91;51.56;101186.03;5048739;28;20521;-83
2022/09/04 03:39:20;;;;;;;1.15;0.85;;;;;;;22.83;51.84;101185.25;5052058;28;20092;-83
2022/09/04 03:42:03;;;;;;;2.85;0.82;;;;;;;22.78;52.45;101182.69;5044101;28;20067;-80
2022/09/04 03:44:47;;;;;;;2.00;0.85;;;;;;;22.73;52.48;101190.66;5045991;28;20056;-80
2022/09/04 03:47:30;;;;;;;1.60;1.00;;;;;;;22.69;52.91;101191.59;5046422;28;21157;-80
2022/09/04 03:50:14;;;;;;;4.93;1.00;;;;;;;22.64;52.94;101190.78;5047438;28;20049;-80
2022/09/04 03:52:56;;;;;;;2.63;1.00;;;;;;;22.63;53.41;101189.06;5045502;28;20690;-83
2022/09/04 03:55:58;;;;;;;1.45;0.90;;;;;;;22.59;53.77;101189.97;5056725;28;21316;-84
2022/09/04 03:58:36;;;;;;;2.70;0.90;;;;;;;22.57;53.28;101191.75;5016770;28;20048;-82
2022/09/04 04:01:12;;;;;;;3.33;0.82;;;;;;;22.53;53.54;101192.69;5049181;28;20160;-82
2022/09/04 04:04:01;;;;;;;2.40;1.08;;;;;;;22.50;53.88;101198.00;5050975;28;20091;-81
2022/09/04 04:06:39;;;;;;;4.57;1.00;;;;;;;22.46;53.68;101196.31;5049995;28;20099;-82
2022/09/04 04:09:32;;;;;;;1.70;0.80;;;;;;;22.42;53.71;101200.72;5050225;28;20413;-82
2022/09/04 04:12:31;;;;;;;2.22;1.10;;;;;;;22.32;54.77;101196.47;5058149;28;20633;-84
2022/09/04 04:15:20;;;;;;;2.35;0.85;;;;;;;22.28;55.68;101203.53;5054476;28;20519;-75
2022/09/04 04:18:13;;;;;;;1.27;0.80;;;;;;;22.21;56.16;101201.88;5047339;28;20060;-76
2022/09/04 04:20:51;;;;;;;1.73;0.90;;;;;;;22.18;56.66;101194.84;5049990;28;20048;-76
2022/09/04 04:23:59;;;;;;;2.28;0.93;;;;;;;22.15;56.39;101197.50;5049137;28;20049;-77
2022/09/04 04:26:39;;;;;;;4.50;0.80;;;;;;;22.12;56.54;101201.94;5044447;28;20494;-78
2022/09/04 04:29:39;;;;;;;3.05;1.00;;;;;;;22.08;57.19;101208.13;5049532;28;20056;-78
2022/09/04 04:32:29;;;;;;;1.10;0.90;;;;;;;22.04;57.09;101211.72;5045397;28;20080;-76
2022/09/04 04:35:16;;;;;;;1.95;1.00;;;;;;;22.00;57.52;101213.50;5045249;28;20565;-77
2022/09/04 04:38:03;;;;;;;2.13;1.20;;;;;;;21.93;57.33;101212.66;5040432;28;20050;-75
2022/09/04 04:40:52;;;;;;;3.25;0.90;;;;;;;21.88;57.32;101219.75;5050187;28;20040;-79
2022/09/04 04:43:27;;;;;;;3.00;1.25;;;;;;;21.84;57.19;101217.16;5045812;28;20049;-78
2022/09/04 04:46:03;;;;;;;4.13;1.20;;;;;;;21.78;57.39;101220.72;5046006;28;20057;-78
2022/09/04 04:48:59;;;;;;;3.38;1.50;;;;;;;21.72;57.55;101216.41;5043834;28;20128;-78
2022/09/04 04:51:51;;;;;;;4.03;1.20;;;;;;;21.67;57.92;101220.84;5050161;28;20737;-77
2022/09/04 04:54:34;;;;;;;8.07;1.60;;;;;;;21.62;58.37;101216.47;5047241;28;20044;-76
2022/09/04 04:57:18;;;;;;;2.97;1.25;;;;;;;21.52;58.24;101220.97;5048434;28;20552;-75
2022/09/04 04:59:54;;;;;;;3.25;1.20;;;;;;;21.43;58.54;101223.66;5046367;28;20072;-76
2022/09/04 05:02:30;;;;;;;2.92;1.10;;;;;;;21.36;59.58;101219.31;5047212;28;20053;-78
2022/09/04 05:05:12;;;;;;;4.57;1.75;;;;;;;21.29;59.79;101221.09;5047610;28;20116;-78
2022/09/04 05:07:47;;;;;;;6.65;1.73;;;;;;;21.18;60.42;101220.31;5047833;28;20045;-81
2022/09/04 05:10:22;;;;;;;3.00;2.10;;;;;;;21.13;61.15;101229.09;5051395;28;20053;-78
2022/09/04 05:12:59;;;;;;;4.82;1.95;;;;;;;21.04;61.00;101236.19;5046253;28;20045;-77
2022/09/04 05:15:36;;;;;;;5.40;2.22;;;;;;;20.96;61.00;101233.63;5049638;28;20044;-76
2022/09/04 05:18:15;;;;;;;2.60;1.70;;;;;;;20.90;60.44;101231.88;5039059;28;20510;-77
2022/09/04 05:20:48;;;;;;;3.83;1.40;;;;;;;20.86;60.15;101218.75;5050776;28;20103;-76
2022/09/04 05:23:26;;;;;;;3.13;1.50;;;;;;;20.80;60.21;101224.03;5040070;28;20045;-75
2022/09/04 05:26:03;;;;;;;5.25;1.73;;;;;;;20.71;60.33;101217.97;5042160;28;20674;-76
2022/09/04 05:28:43;;;;;;;3.17;1.60;;;;;;;20.65;60.44;101228.50;5046958;28;20048;-76
2022/09/04 05:31:21;;;;;;;3.28;1.50;;;;;;;20.53;60.64;101214.50;5050256;28;20049;-77
2022/09/04 05:34:00;;;;;;;4.25;1.38;;;;;;;20.53;60.52;101220.63;5048743;28;20080;-77
2022/09/04 05:36:43;;;;;;;2.42;1.38;;;;;;;20.46;60.99;101227.69;5051314;28;20060;-77
2022/09/04 05:39:20;;;;;;;3.78;1.50;;;;;;;20.44;61.24;101228.56;5043223;28;20665;-77
2022/09/04 05:42:06;;;;;;;4.07;2.47;;;;;;;20.42;61.43;101222.44;5046063;28;20045;-78
2022/09/04 05:44:59;;;;;;;3.67;1.50;;;;;;;20.38;61.70;101226.81;5046457;28;20041;-76
2022/09/04 05:47:43;;;;;;;3.10;1.55;;;;;;;20.37;61.62;101229.47;5047806;28;20049;-77
2022/09/04 05:50:44;;;;;;;6.82;1.80;;;;;;;20.21;61.88;101205.00;5046926;28;20132;-76
2022/09/04 05:53:34;;;;;;;2.88;1.67;;;;;;;20.21;62.28;101224.25;5046945;28;20044;-75
2022/09/04 05:56:22;;;;;;;5.63;1.65;;;;;;;20.13;62.88;101226.00;5045805;28;20683;-75
2022/09/04 05:59:17;;;;;;;2.85;1.50;;;;;;;19.97;64.97;101230.41;5046974;28;20061;-75
2022/09/04 06:02:15;;;;;;;3.13;1.63;;;;;;;19.78;65.70;101229.56;5046645;28;20110;-75
2022/09/04 06:05:17;;;;;;;3.10;1.27;;;;;;;19.70;65.58;101219.94;5047413;28;20095;-73
2022/09/04 06:07:56;;;;;;;5.28;1.27;;;;;;;19.67;65.70;101221.66;5035591;28;20044;-75
2022/09/04 06:10:30;;;;;;;4.65;1.60;;;;;;;19.64;65.88;101221.69;5047556;28;20197;-74
2022/09/04 06:13:30;;;;;;;5.47;1.48;;;;;;;19.60;65.57;101213.81;5047357;28;20040;-75
2022/09/04 06:16:23;;;;;;;3.28;1.80;;;;;;;19.54;66.19;101206.81;5047131;28;20744;-73
2022/09/04 06:19:14;;;;;;;7.93;1.70;;;;;;;19.50;66.53;101217.31;5046255;28;20438;-75
2022/09/04 06:22:12;;;;;;;3.35;1.38;;;;;;;19.44;66.61;101212.94;5047241;28;20044;-81
2022/09/04 06:25:16;;;;;;;3.50;1.92;;;;;;;19.38;66.64;101213.81;5044498;28;20075;-82
2022/09/04 06:28:04;;;;;;;3.60;1.75;;;;;;;19.33;66.74;101209.41;5044859;28;20048;-83
2022/09/04 06:30:44;;;;;;;5.10;1.90;;;;;;;19.29;66.97;101202.41;5049795;28;20041;-81
2022/09/04 06:33:27;;;;;;;5.80;1.98;;;;;;;19.23;67.08;101198.91;5048635;28;20506;-81
2022/09/04 06:36:16;;;;;;;4.15;1.65;;;;;;;19.19;67.45;101197.16;5048940;28;20052;-79
2022/09/04 06:39:02;;;;;;;5.53;1.92;;;;;;;19.14;67.32;101192.78;5052020;28;20041;-81
2022/09/04 06:41:44;;;;;;;5.07;1.73;;;;;;;19.10;67.22;101201.53;5045664;28;20064;-82
2022/09/04 06:44:22;;;;;;;5.97;2.27;;;;;;;19.06;67.31;101205.91;5056454;28;20060;-80
2022/09/04 06:47:04;;;;;;;3.65;2.05;;;;;;;19.02;67.57;101198.91;5055285;28;20052;-80
2022/09/04 06:49:46;;;;;;;6.93;2.35;;;;;;;18.97;67.73;101201.53;5054881;28;20041;-81
2022/09/04 06:52:26;;;;;;;4.60;2.38;;;;;;;18.91;67.53;101200.63;5057836;28;20053;-81
2022/09/04 06:55:00;;;;;;;7.75;2.10;;;;;;;18.87;68.00;101199.72;5067025;28;20056;-82
2022/09/04 06:57:46;;;;;;;4.25;2.20;;;;;;;18.84;67.69;101199.72;5060396;28;20111;-81
2022/09/04 07:00:16;;;;;;;4.32;2.15;;;;;;;18.78;68.87;101190.13;5055461;28;20053;-81
2022/09/04 07:03:09;;;;;;;4.75;2.28;;;;;;;18.75;68.42;101197.06;5050920;28;20049;-82
2022/09/04 07:05:46;;;;;;;7.38;2.10;;;;;;;18.66;68.68;101200.53;5056406;28;20429;-83
2022/09/04 07:08:27;;;;;;;5.28;2.15;;;;;;;18.54;69.62;101193.50;5054834;28;20057;-83
2022/09/04 07:11:04;;;;;;;3.15;1.60;;;;;;;18.45;70.83;101196.06;5052192;28;20049;-83
2022/09/04 07:14:15;;;;;;;2.53;1.52;;;;;;;18.36;70.77;101190.81;5048960;28;20056;-84
2022/09/04 07:16:50;;;;;;;5.88;1.42;;;;;;;18.32;71.39;101189.03;5050199;28;20051;-85
2022/09/04 07:19:46;;;;;;;2.30;1.27;;;;;;;18.30;71.41;101185.53;5049382;28;20865;-83
2022/09/04 07:22:43;;;;;;;5.80;1.25;;;;;;;18.26;71.66;101178.53;5058032;28;20060;-83
2022/09/04 07:25:18;;;;;;;1.77;1.20;;;;;;;18.20;72.02;101180.25;5055252;28;20045;-83
2022/09/04 07:28:05;;;;;;;3.42;1.20;;;;;;;18.19;71.92;101181.13;5066914;28;20081;-82
2022/09/04 07:30:43;;;;;;;5.28;1.50;;;;;;;18.17;71.19;101182.00;5062066;28;20076;-82
2022/09/04 07:33:20;;;;;;;4.60;1.40;;;;;;;18.14;71.19;101189.81;5063250;28;20068;-84
2022/09/04 07:35:57;;;;;;;4.18;1.10;;;;;;;18.00;72.39;101187.13;5057540;28;20124;-83
2022/09/04 07:38:36;;;;;;;1.90;1.17;;;;;;;17.86;73.60;101194.00;5052995;28;20098;-84
2022/09/04 07:41:15;;;;;;;6.47;1.30;;;;;;;17.72;74.66;101202.59;5065553;28;20114;-82
2022/09/04 07:43:51;;;;;;;4.75;1.20;;;;;;;17.62;74.00;101195.56;5062239;28;20075;-81
2022/09/04 07:46:29;;;;;;;3.55;1.02;;;;;;;17.59;73.59;101187.66;5054119;28;20049;-81
2022/09/04 07:49:08;;;;;;;0.95;0.80;;;;;;;17.64;73.76;101193.84;5048473;28;20053;-79
2022/09/04 07:51:44;;;;;;;3.00;1.05;;;;;;;17.65;73.36;101195.59;5049839;28;20040;-79
2022/09/04 07:54:47;;;;;;;3.47;0.85;;;;;;;17.64;73.65;101206.94;5053256;28;20809;-81
2022/09/04 07:57:52;;;;;;;1.55;0.95;;;;;;;17.64;73.83;101204.31;5053153;28;20490;-81
2022/09/04 08:00:21;;;;;;;3.33;1.13;;;;;;;17.64;73.91;101206.03;5062784;28;20081;-81
2022/09/04 08:03:23;;;;;;;6.25;1.45;;;;;;;17.62;73.99;101202.56;5056059;28;20052;-82
2022/09/04 08:05:57;;;;;;;3.83;1.27;;;;;;;17.60;73.63;101210.38;5050475;28;20041;-82
2022/09/04 08:08:53;;;;;;;2.33;1.13;;;;;;;17.59;74.05;101208.59;5055012;28;20514;-81
2022/09/04 08:11:50;;;;;;;5.07;1.35;;;;;;;17.57;74.11;101202.50;5052649;28;20095;-80
2022/09/04 08:14:41;;;;;;;5.38;1.20;;;;;;;17.55;74.91;101202.50;5044762;28;20454;-81
2022/09/04 08:17:44;;;;;;;1.83;1.00;;;;;;;17.52;74.31;101204.19;5048713;28;20037;-82
2022/09/04 08:20:27;;;;;;;4.47;1.08;;;;;;;17.48;74.26;101205.06;5011471;28;20527;-82
2022/09/04 08:23:10;;;;;;;3.33;1.25;;;;;;;17.37;74.59;101197.09;5045951;28;20064;-83
2022/09/04 08:25:55;;;;;;;3.65;1.42;;;;;;;17.42;74.61;101210.22;5056911;28;20489;-83
2022/09/04 08:28:36;;;;;;;3.08;1.00;;;;;;;17.41;75.45;101214.59;5057429;28;20508;-81
2022/09/04 08:31:15;;;;;;;5.57;1.30;;;;;;;17.40;75.76;101214.56;5051815;28;20556;-81
2022/09/04 08:34:14;;;;;;;5.35;1.35;;;;;;;17.37;76.32;101211.06;5049708;28;20542;-81
2022/09/04 08:36:47;;;;;;;6.88;1.50;;;;;;;17.35;75.48;101210.16;5049332;28;20108;-81
2022/09/04 08:39:25;;;;;;;3.72;1.80;;;;;;;17.33;75.22;101204.03;5047046;28;20048;-80
2022/09/04 08:42:31;;;;;;;8.15;1.77;;;;;;;17.31;75.95;101211.00;5048988;28;20048;-83
2022/09/04 08:45:56;;;;;;;2.17;1.25;;;;;;;17.25;76.89;101202.22;5004122;28;20599;-81
2022/09/04 08:49:10;;;;;;;3.65;1.35;;;;;;;17.19;77.22;101200.44;4944717;28;20070;-82
2022/09/04 08:52:25;;;;;;;3.40;1.08;;;;;;;17.10;76.93;101197.72;4951038;28;20535;-81
2022/09/04 08:55:20;;;;;;;1.83;1.13;;;;;;;16.93;76.56;101182.75;4983724;28;20051;-83
2022/09/04 08:58:18;;;;;;;3.17;1.05;;;;;;;16.93;76.37;101181.88;5048384;28;20041;-80
2022/09/04 09:01:06;;;;;;;3.63;1.15;;;;;;;16.96;75.92;101194.97;5034139;28;20056;-81
2022/09/04 09:04:08;;;;;;;2.83;0.93;;;;;;;16.94;76.39;101194.94;5050996;28;20056;-81
2022/09/04 09:07:04;;;;;;;2.40;1.25;;;;;;;16.93;76.17;101195.81;5048134;28;20041;-80
2022/09/04 09:10:13;;;;;;;2.70;1.33;;;;;;;16.90;76.98;101190.53;5050573;28;20513;-81
2022/09/04 09:13:23;;;;;;;2.72;1.40;;;;;;;16.91;77.39;101194.06;5044904;28;20128;-80
2022/09/04 09:16:23;;;;;;;4.00;1.50;;;;;;;16.88;77.50;101186.16;5014520;28;20062;-80
2022/09/04 09:19:19;;;;;;;2.45;0.90;;;;;;;16.83;77.40;101187.88;5053740;28;20052;-82
2022/09/04 09:22:10;;;;;;;2.97;0.98;;;;;;;16.79;76.85;101194.81;5060067;28;20052;-81
2022/09/04 09:25:13;;;;;;;2.58;1.30;;;;;;;16.76;77.02;101192.09;5048579;28;20080;-82
2022/09/04 09:28:20;;;;;;;4.35;0.95;;;;;;;16.72;76.51;101192.94;5046861;28;20762;-82
2022/09/04 09:31:11;;;;;;;1.75;1.05;;;;;;;16.69;77.93;101187.69;5050059;28;20061;-83
2022/09/04 09:34:12;;;;;;;2.45;0.98;;;;;;;16.66;78.19;101187.66;5050698;28;20051;-82
2022/09/04 09:37:18;;;;;;;1.20;0.90;;;;;;;16.60;79.04;101195.41;4722736;27;9229629;-81
2022/09/04 09:40:24;;;;;;;3.45;1.50;;;;;;;16.58;78.21;101197.13;5023065;28;20049;-82
2022/09/04 09:43:23;;;;;;;3.70;1.20;;;;;;;16.55;78.13;101195.34;5012678;28;20761;-80
2022/09/04 09:46:27;;;;;;;1.77;1.20;;;;;;;16.51;78.62;101194.44;5025237;28;20077;-81
2022/09/04 09:49:19;;;;;;;1.90;1.08;;;;;;;16.52;78.09;101184.88;5029471;28;20054;-80
2022/09/04 09:52:15;;;;;;;2.78;0.95;;;;;;;16.52;78.65;101187.50;5002304;28;20057;-83
2022/09/04 09:55:18;;;;;;;1.30;0.98;;;;;;;16.45;77.95;101197.00;5031800;28;20042;-84
2022/09/04 09:58:09;;;;;;;;;;;;;;;16.45;78.47;101199.59;4982307;28;20054;-82
2022/09/04 10:00:48;;;;;;;1.90;1.23;;;;;;;16.42;77.86;101194.31;5023066;28;19929;-81
2022/09/04 10:04:05;;;;;;;1.60;0.90;;;;;;;16.40;78.29;101201.28;5029279;28;20058;-80
2022/09/04 10:07:10;;;;;;;2.83;1.23;;;;;;;16.40;78.92;101197.78;4987637;28;20050;-81
2022/09/04 10:10:29;;;;;;;1.42;0.85;;;;;;;16.38;79.42;101208.22;5024424;28;20137;-80
2022/09/04 10:13:20;;;;;;;3.00;1.25;;;;;;;16.36;78.69;101209.94;4934618;28;20595;-80
2022/09/04 10:16:24;;;;;;;4.35;0.82;;;;;;;16.33;77.98;101209.88;4952919;28;20055;-80
2022/09/04 10:19:31;;;;;;;3.33;1.20;;;;;;;16.29;77.63;101221.16;5022016;28;20046;-80
2022/09/04 10:22:35;;;;;;;1.33;0.60;;;;;;;16.27;77.78;101215.03;5027545;28;20505;-81
2022/09/04 10:25:36;;;;;;;1.80;1.17;;;;;;;16.15;79.71;101214.84;5015964;28;20121;-82
2022/09/04 10:28:30;;;;;;;1.58;0.90;;;;;;;16.12;80.00;101216.56;5017461;28;20521;-83
2022/09/04 10:31:25;;;;;;;3.63;0.95;;;;;;;16.11;80.06;101220.03;5016267;28;20050;-81
2022/09/04 10:34:13;;;;;;;1.33;0.80;;;;;;;16.08;79.52;101222.59;4988602;28;20050;-80
2022/09/04 10:36:52;;;;;;;1.40;1.13;;;;;;;16.09;80.50;101215.66;5024303;28;20057;-81
2022/09/04 10:42:40;;;;;;;2.53;0.77;;;;;;;16.04;79.99;101220.81;5026077;28;20060;-80
2022/09/04 10:45:21;;;;;;;3.60;1.30;;;;;;;16.02;80.93;101222.50;5025219;28;20038;-81
2022/09/04 10:48:16;;;;;;;3.17;1.15;;;;;;;16.01;81.20;101220.78;5012124;28;20053;-80
2022/09/04 10:51:26;;;;;;;2.25;0.90;;;;;;;15.97;81.29;101218.97;5007402;28;20518;-80
2022/09/04 10:54:22;;;;;;;1.85;0.85;;;;;;;15.95;81.52;101219.81;5017110;28;20526;-82
2022/09/04 10:57:06;;;;;;;2.25;1.17;;;;;;;15.94;80.60;101218.03;5011630;28;20058;-82
2022/09/04 11:00:02;;;;;;;3.22;1.10;;;;;;;15.90;80.64;101217.13;5013965;28;20060;-81
2022/09/04 11:03:11;;;;;;;3.90;1.00;;;;;;;15.87;81.10;101219.66;5010426;28;20475;-80
2022/09/04 11:06:09;;;;;;;3.20;0.90;;;;;;;15.80;81.56;101218.69;5002333;28;20563;-82
2022/09/04 11:09:03;;;;;;;1.75;0.80;;;;;;;15.68;81.87;101214.13;5012309;28;20333;-82
2022/09/04 11:12:01;;;;;;;1.42;0.75;;;;;;;15.59;82.77;101213.97;5011967;28;20053;-81
2022/09/04 11:14:56;;;;;;;3.15;0.90;;;;;;;15.56;82.27;101219.16;5007960;28;20046;-80
2022/09/04 11:18:03;;;;;;;3.72;0.93;;;;;;;15.55;81.82;101221.72;5012673;28;20052;-81
2022/09/04 11:21:17;;;;;;;4.47;1.00;;;;;;;15.50;82.05;101219.03;4938835;28;20052;-80
2022/09/04 11:24:31;;;;;;;3.20;1.15;;;;;;;15.46;82.46;101218.13;5005135;28;20054;-82
2022/09/04 11:27:37;;;;;;;2.95;1.00;;;;;;;15.48;82.13;101215.53;5008639;28;20089;-82
2022/09/04 11:30:13;;;;;;;1.52;0.82;;;;;;;15.45;81.70;101220.72;4966482;28;20046;-81
2022/09/04 11:33:21;;;;;;;2.22;1.15;;;;;;;15.42;81.81;101225.88;5013993;28;20053;-81
2022/09/04 11:36:17;;;;;;;1.85;0.80;;;;;;;15.43;81.44;101230.22;5019514;28;20050;-82
2022/09/04 11:39:24;;;;;;;1.75;1.08;;;;;;;15.43;82.11;101231.09;5013310;28;20058;-80
2022/09/04 11:42:34;;;;;;;2.20;0.70;;;;;;;15.44;81.69;101227.66;5017383;28;20052;-79
2022/09/04 11:45:48;;;;;;;3.00;1.00;;;;;;;15.40;80.66;101233.66;4999494;28;20047;-81
2022/09/04 11:48:52;;;;;;;2.15;1.13;;;;;;;15.35;81.71;101229.25;5013779;28;20046;-80
2022/09/04 11:51:50;;;;;;;3.25;0.93;;;;;;;15.31;81.43;101233.50;5009775;28;20116;-81
2022/09/04 11:54:48;;;;;;;5.35;1.10;;;;;;;15.28;82.33;101234.34;5008651;28;20571;-82
2022/09/04 11:57:30;;;;;;;2.83;1.27;;;;;;;15.30;82.26;101231.72;4966762;28;20451;-80
2022/09/04 12:00:08;;;;;;;1.65;1.00;;;;;;;15.31;81.79;101238.72;5018079;28;20173;-80
2022/09/04 12:03:14;;;;;;;3.53;1.02;;;;;;;15.31;82.10;101240.47;5008733;28;20101;-79
2022/09/04 12:06:11;;;;;;;2.92;0.93;;;;;;;15.26;81.81;101241.25;5015733;28;20096;-79
2022/09/04 12:09:18;;;;;;;1.98;1.13;;;;;;;15.23;81.67;101251.63;5010563;28;20058;-80
2022/09/04 12:12:16;;;;;;;3.42;1.10;;;;;;;15.20;82.17;101243.72;5010358;28;20065;-80
2022/09/04 12:15:23;;;;;;;1.27;0.98;;;;;;;15.21;82.81;101240.28;5000943;28;20415;-81
2022/09/04 12:18:24;;;;;;;4.07;1.25;;;;;;;15.20;82.73;101246.34;5005564;28;20049;-80
2022/09/04 12:21:20;;;;;;;2.47;1.10;;;;;;;15.14;83.18;101229.72;5007954;28;20050;-82
2022/09/04 12:24:22;;;;;;;1.92;0.90;;;;;;;15.17;83.29;101235.88;5010482;28;20073;-81
2022/09/04 12:27:23;;;;;;;4.25;1.00;;;;;;;15.17;83.00;101241.09;5011113;28;20929;-81
2022/09/04 12:30:20;;;;;;;1.17;0.80;;;;;;;15.16;83.36;101246.25;5008491;28;20053;-81
2022/09/04 12:33:41;;;;;;;1.88;1.08;;;;;;;15.14;83.03;101245.34;5007722;28;20129;-83
2022/09/04 12:36:36;;;;;;;2.10;1.02;;;;;;;15.12;83.31;101247.94;5012938;28;20172;-83
2022/09/04 12:39:37;;;;;;;9.82;1.10;;;;;;;15.10;83.08;101249.63;5007986;28;20041;-82
2022/09/04 12:42:10;;;;;;;1.95;1.08;;;;;;;15.08;82.57;101257.41;5006985;28;20136;-81
2022/09/04 12:44:50;;;;;;;4.05;0.80;;;;;;;15.05;81.35;101253.91;5009204;28;20050;-81
2022/09/04 12:47:31;;;;;;;3.78;1.02;;;;;;;14.97;81.92;101258.06;5006505;28;20669;-79
2022/09/04 12:50:21;;;;;;;3.70;1.02;;;;;;;14.95;82.89;101249.34;5010970;28;20050;-80
2022/09/04 12:53:08;;;;;;;1.63;0.85;;;;;;;14.93;83.28;101253.63;5007133;28;20127;-82
2022/09/04 12:55:48;;;;;;;3.80;1.40;;;;;;;14.92;84.07;101254.50;4997800;28;20062;-81
2022/09/04 12:58:30;;;;;;;3.75;1.10;;;;;;;14.91;83.44;101247.50;5008554;28;20204;-81
2022/09/04 13:01:19;;;;;;;1.80;0.90;;;;;;;14.88;83.97;101249.22;5007251;28;20510;-80
2022/09/04 13:04:00;;;;;;;3.30;1.15;;;;;;;14.79;84.22;101232.53;5008355;28;20058;-81
2022/09/04 13:06:39;;;;;;;1.17;0.85;;;;;;;14.84;84.06;101242.22;5011221;28;20509;-80